sensor_id;sensor_type;location;lat;lon;timestamp;pressure;altitude;pressure_sealevel;temperature;humidity
23170;BME280;11753;43.144;24.714;2023-01-08T00:00:43;100132.53;;;3.14;90.68
23170;BME280;11753;43.144;24.714;2023-01-08T00:01:44;100130.88;;;3.13;90.41
23170;BME280;11753;43.144;24.714;2023-01-08T00:02:45;100131.44;;;3.18;90.19
23170;BME280;11753;43.144;24.714;2023-01-08T00:03:48;100129.78;;;3.17;89.85
23170;BME280;11753;43.144;24.714;2023-01-08T00:04:49;100131.72;;;3.14;89.86
23170;BME280;11753;43.144;24.714;2023-01-08T00:05:50;100127.91;;;3.05;90.48
23170;BME280;11753;43.144;24.714;2023-01-08T00:06:50;100121.97;;;3.03;90.10
23170;BME280;11753;43.144;24.714;2023-01-08T00:07:51;100127.28;;;3.01;91.04
23170;BME280;11753;43.144;24.714;2023-01-08T00:08:52;100134.72;;;3.08;90.83
23170;BME280;11753;43.144;24.714;2023-01-08T00:09:53;100125.88;;;3.10;90.94
23170;BME280;11753;43.144;24.714;2023-01-08T00:10:54;100122.53;;;3.08;90.92
23170;BME280;11753;43.144;24.714;2023-01-08T00:11:56;100126.91;;;3.08;90.48
23170;BME280;11753;43.144;24.714;2023-01-08T00:12:57;100116.56;;;2.92;91.15
23170;BME280;11753;43.144;24.714;2023-01-08T00:13:58;100121.78;;;2.92;91.27
23170;BME280;11753;43.144;24.714;2023-01-08T00:15:01;100121.50;;;2.96;91.14
23170;BME280;11753;43.144;24.714;2023-01-08T00:16:04;100127.81;;;2.92;91.43
23170;BME280;11753;43.144;24.714;2023-01-08T00:17:06;100119.47;;;2.87;91.50
23170;BME280;11753;43.144;24.714;2023-01-08T00:18:08;100126.69;;;2.82;91.47
23170;BME280;11753;43.144;24.714;2023-01-08T00:19:10;100123.84;;;2.87;91.48
23170;BME280;11753;43.144;24.714;2023-01-08T00:20:12;100118.44;;;2.90;91.49
23170;BME280;11753;43.144;24.714;2023-01-08T00:21:13;100121.59;;;2.81;91.73
23170;BME280;11753;43.144;24.714;2023-01-08T00:22:14;100116.03;;;2.87;91.67
23170;BME280;11753;43.144;24.714;2023-01-08T00:23:17;100118.81;;;2.84;91.58
23170;BME280;11753;43.144;24.714;2023-01-08T00:24:18;100124.28;;;2.79;92.07
23170;BME280;11753;43.144;24.714;2023-01-08T00:25:19;100117.69;;;2.88;91.94
23170;BME280;11753;43.144;24.714;2023-01-08T00:26:22;100126.03;;;2.79;92.12
23170;BME280;11753;43.144;24.714;2023-01-08T00:27:23;100123.63;;;2.75;92.72
23170;BME280;11753;43.144;24.714;2023-01-08T00:28:24;100119.16;;;2.78;92.70
23170;BME280;11753;43.144;24.714;2023-01-08T00:29:24;100118.31;;;2.77;92.76
23170;BME280;11753;43.144;24.714;2023-01-08T00:30:25;100121.03;;;2.75;93.31
23170;BME280;11753;43.144;24.714;2023-01-08T00:31:26;100121.69;;;2.79;93.14
23170;BME280;11753;43.144;24.714;2023-01-08T00:32:27;100120.81;;;2.79;92.65
23170;BME280;11753;43.144;24.714;2023-01-08T00:33:29;100118.22;;;2.79;92.49
23170;BME280;11753;43.144;24.714;2023-01-08T00:34:31;100117.31;;;2.80;92.24
23170;BME280;11753;43.144;24.714;2023-01-08T00:35:32;100125.50;;;2.73;92.76
23170;BME280;11753;43.144;24.714;2023-01-08T00:36:33;100127.16;;;2.74;92.94
23170;BME280;11753;43.144;24.714;2023-01-08T00:37:34;100116.56;;;2.78;92.84
23170;BME280;11753;43.144;24.714;2023-01-08T00:38:35;100115.81;;;2.75;92.58
23170;BME280;11753;43.144;24.714;2023-01-08T00:39:36;100116.19;;;2.69;93.07
23170;BME280;11753;43.144;24.714;2023-01-08T00:40:37;100112.28;;;2.76;92.53
23170;BME280;11753;43.144;24.714;2023-01-08T00:41:40;100114.78;;;2.78;92.14
23170;BME280;11753;43.144;24.714;2023-01-08T00:42:43;100112.28;;;2.76;92.29
23170;BME280;11753;43.144;24.714;2023-01-08T00:43:44;100122.53;;;2.80;91.99
23170;BME280;11753;43.144;24.714;2023-01-08T00:44:46;100111.56;;;2.74;91.88
23170;BME280;11753;43.144;24.714;2023-01-08T00:45:47;100114.06;;;2.76;91.57
23170;BME280;11753;43.144;24.714;2023-01-08T00:46:48;100118.44;;;2.75;91.63
23170;BME280;11753;43.144;24.714;2023-01-08T00:47:49;100121.03;;;2.75;91.60
23170;BME280;11753;43.144;24.714;2023-01-08T00:48:49;100126.22;;;2.75;91.54
23170;BME280;11753;43.144;24.714;2023-01-08T00:49:50;100122.53;;;2.80;91.72
23170;BME280;11753;43.144;24.714;2023-01-08T00:50:52;100125.66;;;2.85;91.46
23170;BME280;11753;43.144;24.714;2023-01-08T00:51:54;100120.66;;;2.82;91.57
23170;BME280;11753;43.144;24.714;2023-01-08T00:52:55;100131.81;;;2.84;91.37
23170;BME280;11753;43.144;24.714;2023-01-08T00:53:56;100121.59;;;2.81;91.47
23170;BME280;11753;43.144;24.714;2023-01-08T00:54:57;100128.38;;;2.83;91.53
23170;BME280;11753;43.144;24.714;2023-01-08T00:56:02;100133.00;;;2.92;91.39
23170;BME280;11753;43.144;24.714;2023-01-08T00:57:04;100125.31;;;2.91;90.92
23170;BME280;11753;43.144;24.714;2023-01-08T00:58:05;100136.63;;;2.90;91.10
23170;BME280;11753;43.144;24.714;2023-01-08T00:59:06;100120.47;;;2.85;91.27
23170;BME280;11753;43.144;24.714;2023-01-08T01:00:10;100127.16;;;2.89;91.30
23170;BME280;11753;43.144;24.714;2023-01-08T01:01:13;100130.34;;;2.94;91.21
23170;BME280;11753;43.144;24.714;2023-01-08T01:02:14;100124.00;;;2.84;90.92
23170;BME280;11753;43.144;24.714;2023-01-08T01:03:15;100132.94;;;2.80;90.97
23170;BME280;11753;43.144;24.714;2023-01-08T01:04:16;100133.56;;;2.83;91.14
23170;BME280;11753;43.144;24.714;2023-01-08T01:05:17;100129.75;;;2.74;91.25
23170;BME280;11753;43.144;24.714;2023-01-08T01:06:18;100132.91;;;2.65;91.49
23170;BME280;11753;43.144;24.714;2023-01-08T01:07:19;100135.66;;;2.62;91.55
23170;BME280;11753;43.144;24.714;2023-01-08T01:08:20;100139.94;;;2.63;91.46
23170;BME280;11753;43.144;24.714;2023-01-08T01:09:21;100130.84;;;2.56;91.53
23170;BME280;11753;43.144;24.714;2023-01-08T01:10:23;100132.91;;;2.35;92.26
23170;BME280;11753;43.144;24.714;2023-01-08T01:11:26;100132.88;;;2.51;91.98
23170;BME280;11753;43.144;24.714;2023-01-08T01:12:27;100129.03;;;2.42;92.39
23170;BME280;11753;43.144;24.714;2023-01-08T01:13:29;100133.59;;;2.39;92.54
23170;BME280;11753;43.144;24.714;2023-01-08T01:14:30;100123.63;;;2.31;92.76
23170;BME280;11753;43.144;24.714;2023-01-08T01:15:31;100133.69;;;2.37;93.01
23170;BME280;11753;43.144;24.714;2023-01-08T01:16:32;100130.06;;;2.40;93.16
23170;BME280;11753;43.144;24.714;2023-01-08T01:17:34;100139.16;;;2.47;93.22
23170;BME280;11753;43.144;24.714;2023-01-08T01:18:38;100125.00;;;2.53;92.98
23170;BME280;11753;43.144;24.714;2023-01-08T01:19:38;100123.81;;;2.58;92.84
23170;BME280;11753;43.144;24.714;2023-01-08T01:20:39;100127.34;;;2.57;93.05
23170;BME280;11753;43.144;24.714;2023-01-08T01:21:40;100118.13;;;2.52;94.01
23170;BME280;11753;43.144;24.714;2023-01-08T01:22:41;100124.63;;;2.59;93.38
23170;BME280;11753;43.144;24.714;2023-01-08T01:23:43;100123.97;;;2.55;93.16
23170;BME280;11753;43.144;24.714;2023-01-08T01:24:44;100118.75;;;2.55;92.77
23170;BME280;11753;43.144;24.714;2023-01-08T01:25:45;100119.88;;;2.51;92.80
23170;BME280;11753;43.144;24.714;2023-01-08T01:26:46;100126.75;;;2.52;92.61
23170;BME280;11753;43.144;24.714;2023-01-08T01:27:46;100114.94;;;2.46;92.97
23170;BME280;11753;43.144;24.714;2023-01-08T01:28:49;100121.19;;;2.44;92.64
23170;BME280;11753;43.144;24.714;2023-01-08T01:29:50;100120.16;;;2.46;92.74
23170;BME280;11753;43.144;24.714;2023-01-08T01:30:55;100120.25;;;2.45;92.77
23170;BME280;11753;43.144;24.714;2023-01-08T01:31:57;100129.50;;;2.49;92.59
23170;BME280;11753;43.144;24.714;2023-01-08T01:32:58;100128.78;;;2.47;92.24
23170;BME280;11753;43.144;24.714;2023-01-08T01:33:59;100127.22;;;2.44;92.04
23170;BME280;11753;43.144;24.714;2023-01-08T01:35:02;100131.84;;;2.54;91.76
23170;BME280;11753;43.144;24.714;2023-01-08T01:36:04;100131.28;;;2.48;91.65
23170;BME280;11753;43.144;24.714;2023-01-08T01:37:05;100122.66;;;2.48;91.40
23170;BME280;11753;43.144;24.714;2023-01-08T01:38:07;100123.19;;;2.39;91.54
23170;BME280;11753;43.144;24.714;2023-01-08T01:39:08;100124.28;;;2.35;91.68
23170;BME280;11753;43.144;24.714;2023-01-08T01:40:10;100126.38;;;2.44;91.52
23170;BME280;11753;43.144;24.714;2023-01-08T01:41:20;100122.06;;;2.29;91.98
23170;BME280;11753;43.144;24.714;2023-01-08T01:42:23;100117.22;;;2.23;92.36
23170;BME280;11753;43.144;24.714;2023-01-08T01:43:41;100114.78;;;2.19;92.37
23170;BME280;11753;43.144;24.714;2023-01-08T01:44:45;100114.03;;;2.17;92.37
23170;BME280;11753;43.144;24.714;2023-01-08T01:45:47;100116.97;;;2.11;92.54
23170;BME280;11753;43.144;24.714;2023-01-08T01:46:48;100114.22;;;2.14;92.87
23170;BME280;11753;43.144;24.714;2023-01-08T01:48:01;100114.97;;;2.16;92.95
23170;BME280;11753;43.144;24.714;2023-01-08T01:49:10;100113.94;;;2.19;93.03
23170;BME280;11753;43.144;24.714;2023-01-08T01:50:15;100122.22;;;2.26;92.85
23170;BME280;11753;43.144;24.714;2023-01-08T01:51:18;100110.91;;;2.27;92.88
23170;BME280;11753;43.144;24.714;2023-01-08T01:52:19;100106.63;;;2.26;93.03
23170;BME280;11753;43.144;24.714;2023-01-08T01:53:33;100111.84;;;2.26;93.02
23170;BME280;11753;43.144;24.714;2023-01-08T01:54:35;100114.53;;;2.24;93.45
23170;BME280;11753;43.144;24.714;2023-01-08T01:55:41;100111.75;;;2.27;93.58
23170;BME280;11753;43.144;24.714;2023-01-08T01:56:44;100111.00;;;2.25;93.57
23170;BME280;11753;43.144;24.714;2023-01-08T01:57:52;100110.16;;;2.25;93.88
23170;BME280;11753;43.144;24.714;2023-01-08T01:58:54;100111.44;;;2.17;93.86
23170;BME280;11753;43.144;24.714;2023-01-08T01:59:57;100111.09;;;2.24;93.78
23170;BME280;11753;43.144;24.714;2023-01-08T02:01:04;100104.28;;;2.21;93.65
23170;BME280;11753;43.144;24.714;2023-01-08T02:02:06;100112.50;;;2.29;93.38
23170;BME280;11753;43.144;24.714;2023-01-08T02:03:13;100114.06;;;2.32;93.08
23170;BME280;11753;43.144;24.714;2023-01-08T02:04:14;100110.75;;;2.30;92.83
23170;BME280;11753;43.144;24.714;2023-01-08T02:05:16;100111.66;;;2.29;92.76
23170;BME280;11753;43.144;24.714;2023-01-08T02:07:53;100116.69;;;2.32;92.40
23170;BME280;11753;43.144;24.714;2023-01-08T02:10:34;100116.06;;;2.12;93.15
23170;BME280;11753;43.144;24.714;2023-01-08T02:12:57;100115.97;;;2.14;93.42
23170;BME280;11753;43.144;24.714;2023-01-08T02:14:24;100110.50;;;2.18;93.02
23170;BME280;11753;43.144;24.714;2023-01-08T02:16:59;100106.81;;;2.23;92.87
23170;BME280;11753;43.144;24.714;2023-01-08T02:19:39;100114.78;;;2.19;92.87
23170;BME280;11753;43.144;24.714;2023-01-08T02:20:43;100117.22;;;2.23;92.32
23170;BME280;11753;43.144;24.714;2023-01-08T02:21:56;100116.06;;;2.12;92.72
23170;BME280;11753;43.144;24.714;2023-01-08T02:23:36;100116.06;;;2.12;92.98
23170;BME280;11753;43.144;24.714;2023-01-08T02:26:03;100109.03;;;2.14;92.64
23170;BME280;11753;43.144;24.714;2023-01-08T02:27:07;100109.78;;;2.16;92.48
23170;BME280;11753;43.144;24.714;2023-01-08T02:28:10;100117.91;;;2.10;92.85
23170;BME280;11753;43.144;24.714;2023-01-08T02:29:16;100117.72;;;2.13;92.69
23170;BME280;11753;43.144;24.714;2023-01-08T02:30:18;100111.97;;;2.08;92.98
23170;BME280;11753;43.144;24.714;2023-01-08T02:31:21;100113.75;;;2.08;93.03
23170;BME280;11753;43.144;24.714;2023-01-08T02:32:26;100111.03;;;2.09;92.77
23170;BME280;11753;43.144;24.714;2023-01-08T02:33:28;100111.88;;;2.10;93.16
23170;BME280;11753;43.144;24.714;2023-01-08T02:34:29;100112.94;;;2.22;92.87
23170;BME280;11753;43.144;24.714;2023-01-08T02:35:41;100104.38;;;2.19;92.63
23170;BME280;11753;43.144;24.714;2023-01-08T02:36:46;100113.78;;;2.22;92.40
23170;BME280;11753;43.144;24.714;2023-01-08T02:37:48;100112.03;;;2.23;92.35
23170;BME280;11753;43.144;24.714;2023-01-08T02:41:09;100104.19;;;2.08;92.67
23170;BME280;11753;43.144;24.714;2023-01-08T02:43:44;100112.53;;;2.13;92.91
23170;BME280;11753;43.144;24.714;2023-01-08T02:45:59;100111.69;;;2.13;93.03
23170;BME280;11753;43.144;24.714;2023-01-08T02:47:04;100116.06;;;2.12;93.13
23170;BME280;11753;43.144;24.714;2023-01-08T02:48:25;100116.81;;;2.14;93.36
23170;BME280;11753;43.144;24.714;2023-01-08T02:49:34;100109.03;;;2.14;93.32
23170;BME280;11753;43.144;24.714;2023-01-08T02:51:24;100112.38;;;2.16;93.70
23170;BME280;11753;43.144;24.714;2023-01-08T02:52:30;100118.75;;;2.11;93.57
23170;BME280;11753;43.144;24.714;2023-01-08T02:53:41;100121.97;;;2.00;93.75
23170;BME280;11753;43.144;24.714;2023-01-08T02:54:46;100116.41;;;2.06;94.13
23170;BME280;11753;43.144;24.714;2023-01-08T02:55:55;100118.00;;;2.09;93.81
23170;BME280;11753;43.144;24.714;2023-01-08T02:57:07;100110.22;;;2.09;93.99
23170;BME280;11753;43.144;24.714;2023-01-08T02:58:12;100114.72;;;2.05;93.58
23170;BME280;11753;43.144;24.714;2023-01-08T02:59:14;100121.44;;;2.09;93.28
23170;BME280;11753;43.144;24.714;2023-01-08T03:00:17;100121.28;;;1.97;93.28
23170;BME280;11753;43.144;24.714;2023-01-08T03:01:20;100120.25;;;1.99;93.42
23170;BME280;11753;43.144;24.714;2023-01-08T03:02:24;100123.38;;;1.90;93.55
23170;BME280;11753;43.144;24.714;2023-01-08T03:03:27;100124.22;;;1.90;93.88
23170;BME280;11753;43.144;24.714;2023-01-08T03:04:31;100115.44;;;1.93;93.82
23170;BME280;11753;43.144;24.714;2023-01-08T03:05:35;100118.59;;;1.98;93.54
23170;BME280;11753;43.144;24.714;2023-01-08T03:06:38;100117.94;;;1.95;93.40
23170;BME280;11753;43.144;24.714;2023-01-08T03:07:39;100125.06;;;1.91;93.45
23170;BME280;11753;43.144;24.714;2023-01-08T03:08:43;100119.63;;;1.96;93.43
23170;BME280;11753;43.144;24.714;2023-01-08T03:09:46;100120.25;;;1.99;93.59
23170;BME280;11753;43.144;24.714;2023-01-08T03:11:01;100125.97;;;1.90;93.76
23170;BME280;11753;43.144;24.714;2023-01-08T03:12:23;100120.44;;;1.96;93.54
23170;BME280;11753;43.144;24.714;2023-01-08T03:13:30;100117.84;;;1.96;93.66
23170;BME280;11753;43.144;24.714;2023-01-08T03:14:45;100118.44;;;2.01;93.42
23170;BME280;11753;43.144;24.714;2023-01-08T03:15:51;100125.84;;;1.93;93.69
23170;BME280;11753;43.144;24.714;2023-01-08T03:16:59;100128.16;;;1.98;93.79
23170;BME280;11753;43.144;24.714;2023-01-08T03:18:08;100127.50;;;1.94;93.79
23170;BME280;11753;43.144;24.714;2023-01-08T03:19:27;100121.28;;;1.97;93.42
23170;BME280;11753;43.144;24.714;2023-01-08T03:20:32;100116.94;;;1.97;93.10
23170;BME280;11753;43.144;24.714;2023-01-08T03:21:36;100128.97;;;1.98;92.91
23170;BME280;11753;43.144;24.714;2023-01-08T03:22:39;100126.28;;;2.00;93.01
23170;BME280;11753;43.144;24.714;2023-01-08T03:23:43;100125.47;;;1.99;93.10
23170;BME280;11753;43.144;24.714;2023-01-08T03:24:46;100120.34;;;1.98;93.29
23170;BME280;11753;43.144;24.714;2023-01-08T03:25:49;100124.56;;;2.00;93.27
23170;BME280;11753;43.144;24.714;2023-01-08T03:26:53;100124.56;;;2.00;93.12
23170;BME280;11753;43.144;24.714;2023-01-08T03:28:00;100116.84;;;1.99;93.11
23170;BME280;11753;43.144;24.714;2023-01-08T03:29:03;100120.53;;;1.95;92.89
23170;BME280;11753;43.144;24.714;2023-01-08T03:30:07;100123.97;;;1.95;92.88
23170;BME280;11753;43.144;24.714;2023-01-08T03:31:10;100120.97;;;1.87;93.20
23170;BME280;11753;43.144;24.714;2023-01-08T03:32:15;100117.44;;;1.88;92.95
23170;BME280;11753;43.144;24.714;2023-01-08T03:33:18;100122.66;;;1.88;92.98
23170;BME280;11753;43.144;24.714;2023-01-08T03:34:20;100119.13;;;1.89;93.03
23170;BME280;11753;43.144;24.714;2023-01-08T03:35:26;100122.31;;;1.94;92.57
23170;BME280;11753;43.144;24.714;2023-01-08T03:36:27;100128.59;;;1.90;93.00
23170;BME280;11753;43.144;24.714;2023-01-08T03:37:36;100127.09;;;1.86;92.91
23170;BME280;11753;43.144;24.714;2023-01-08T03:38:47;100124.31;;;1.89;93.05
23170;BME280;11753;43.144;24.714;2023-01-08T03:40:11;100120.34;;;1.98;92.48
23170;BME280;11753;43.144;24.714;2023-01-08T03:41:17;100114.66;;;1.91;92.31
23170;BME280;11753;43.144;24.714;2023-01-08T03:42:19;100120.97;;;1.87;92.33
23170;BME280;11753;43.144;24.714;2023-01-08T03:43:21;100131.19;;;1.90;92.35
23170;BME280;11753;43.144;24.714;2023-01-08T03:44:22;100126.56;;;1.95;91.90
23170;BME280;11753;43.144;24.714;2023-01-08T03:45:25;100127.66;;;1.91;91.75
23170;BME280;11753;43.144;24.714;2023-01-08T03:46:30;100130.53;;;1.86;92.09
23170;BME280;11753;43.144;24.714;2023-01-08T03:47:34;100120.28;;;1.83;91.98
23170;BME280;11753;43.144;24.714;2023-01-08T03:48:36;100123.72;;;1.84;91.83
23170;BME280;11753;43.144;24.714;2023-01-08T03:49:39;100122.25;;;1.80;92.11
23170;BME280;11753;43.144;24.714;2023-01-08T03:50:41;100116.47;;;1.75;92.36
23170;BME280;11753;43.144;24.714;2023-01-08T03:51:43;100121.91;;;1.86;91.89
23170;BME280;11753;43.144;24.714;2023-01-08T03:52:44;100121.47;;;1.78;91.98
23170;BME280;11753;43.144;24.714;2023-01-08T03:53:44;100120.13;;;1.71;92.30
23170;BME280;11753;43.144;24.714;2023-01-08T03:54:47;100122.47;;;1.75;92.32
23170;BME280;11753;43.144;24.714;2023-01-08T03:55:47;100118.47;;;1.70;92.40
23170;BME280;11753;43.144;24.714;2023-01-08T03:56:48;100122.31;;;1.62;92.53
23170;BME280;11753;43.144;24.714;2023-01-08T03:57:48;100128.69;;;1.57;92.95
23170;BME280;11753;43.144;24.714;2023-01-08T03:58:49;100121.16;;;1.52;93.45
23170;BME280;11753;43.144;24.714;2023-01-08T03:59:50;100118.97;;;1.60;93.18
23170;BME280;11753;43.144;24.714;2023-01-08T04:00:51;100123.44;;;1.58;93.17
23170;BME280;11753;43.144;24.714;2023-01-08T04:01:52;100125.84;;;1.61;93.24
23170;BME280;11753;43.144;24.714;2023-01-08T04:02:52;100128.44;;;1.61;93.19
23170;BME280;11753;43.144;24.714;2023-01-08T04:03:53;100125.09;;;1.59;93.26
23170;BME280;11753;43.144;24.714;2023-01-08T04:04:54;100131.03;;;1.61;93.22
23170;BME280;11753;43.144;24.714;2023-01-08T04:05:58;100124.16;;;1.60;93.14
23170;BME280;11753;43.144;24.714;2023-01-08T04:06:59;100120.50;;;1.64;93.13
23170;BME280;11753;43.144;24.714;2023-01-08T04:08:00;100127.34;;;1.65;92.85
23170;BME280;11753;43.144;24.714;2023-01-08T04:09:01;100126.34;;;1.68;92.92
23170;BME280;11753;43.144;24.714;2023-01-08T04:10:02;100131.53;;;1.68;92.97
23170;BME280;11753;43.144;24.714;2023-01-08T04:11:03;100122.16;;;1.65;93.03
23170;BME280;11753;43.144;24.714;2023-01-08T04:12:04;100127.34;;;1.65;93.42
23170;BME280;11753;43.144;24.714;2023-01-08T04:13:04;100126.59;;;1.63;93.43
23170;BME280;11753;43.144;24.714;2023-01-08T04:14:05;100116.97;;;1.65;93.28
23170;BME280;11753;43.144;24.714;2023-01-08T04:15:06;100129.97;;;1.65;93.11
23170;BME280;11753;43.144;24.714;2023-01-08T04:16:07;100130.88;;;1.64;92.92
23170;BME280;11753;43.144;24.714;2023-01-08T04:17:11;100133.38;;;1.66;92.85
23170;BME280;11753;43.144;24.714;2023-01-08T04:18:12;100138.47;;;1.68;92.90
23170;BME280;11753;43.144;24.714;2023-01-08T04:19:13;100130.59;;;1.69;92.67
23170;BME280;11753;43.144;24.714;2023-01-08T04:20:14;100132.38;;;1.69;92.74
23170;BME280;11753;43.144;24.714;2023-01-08T04:21:14;100123.84;;;1.67;92.90
23170;BME280;11753;43.144;24.714;2023-01-08T04:22:15;100132.38;;;1.69;92.74
23170;BME280;11753;43.144;24.714;2023-01-08T04:23:16;100138.22;;;1.56;93.34
23170;BME280;11753;43.144;24.714;2023-01-08T04:24:18;100137.25;;;1.59;93.45
23170;BME280;11753;43.144;24.714;2023-01-08T04:25:18;100132.88;;;1.59;93.56
23170;BME280;11753;43.144;24.714;2023-01-08T04:26:19;100124.75;;;1.65;93.30
23170;BME280;11753;43.144;24.714;2023-01-08T04:27:20;100134.72;;;1.57;93.61
23170;BME280;11753;43.144;24.714;2023-01-08T04:28:21;100129.53;;;1.57;93.54
23170;BME280;11753;43.144;24.714;2023-01-08T04:29:24;100122.84;;;1.53;93.66
23170;BME280;11753;43.144;24.714;2023-01-08T04:30:25;100133.22;;;1.53;93.80
23170;BME280;11753;43.144;24.714;2023-01-08T04:31:26;100129.69;;;1.54;93.89
23170;BME280;11753;43.144;24.714;2023-01-08T04:32:27;100128.03;;;1.53;94.16
23170;BME280;11753;43.144;24.714;2023-01-08T04:33:28;100129.69;;;1.54;93.70
23170;BME280;11753;43.144;24.714;2023-01-08T04:34:28;100132.03;;;1.43;93.79
23170;BME280;11753;43.144;24.714;2023-01-08T04:35:30;100128.19;;;1.50;93.65
23170;BME280;11753;43.144;24.714;2023-01-08T04:36:31;100139.47;;;1.49;93.85
23170;BME280;11753;43.144;24.714;2023-01-08T04:37:32;100134.22;;;1.51;93.66
23170;BME280;11753;43.144;24.714;2023-01-08T04:38:32;100136.31;;;1.44;94.33
23170;BME280;11753;43.144;24.714;2023-01-08T04:39:34;100134.47;;;1.46;94.65
23170;BME280;11753;43.144;24.714;2023-01-08T04:40:34;100130.03;;;1.48;94.78
23170;BME280;11753;43.144;24.714;2023-01-08T04:41:35;100142.25;;;1.46;94.90
23170;BME280;11753;43.144;24.714;2023-01-08T04:42:36;100136.72;;;1.52;94.35
23170;BME280;11753;43.144;24.714;2023-01-08T04:43:37;100131.88;;;1.46;94.68
23170;BME280;11753;43.144;24.714;2023-01-08T04:44:39;100131.69;;;1.49;94.20
23170;BME280;11753;43.144;24.714;2023-01-08T04:45:40;100130.03;;;1.48;94.40
23170;BME280;11753;43.144;24.714;2023-01-08T04:46:41;100135.81;;;1.53;94.19
23170;BME280;11753;43.144;24.714;2023-01-08T04:47:42;100141.84;;;1.54;94.53
23170;BME280;11753;43.144;24.714;2023-01-08T04:48:43;100131.38;;;1.55;94.33
23170;BME280;11753;43.144;24.714;2023-01-08T04:49:44;100139.31;;;1.52;94.26
23170;BME280;11753;43.144;24.714;2023-01-08T04:50:45;100126.84;;;1.43;94.21
23170;BME280;11753;43.144;24.714;2023-01-08T04:51:46;100133.72;;;1.44;94.50
23170;BME280;11753;43.144;24.714;2023-01-08T04:52:47;100135.22;;;1.48;94.64
23170;BME280;11753;43.144;24.714;2023-01-08T04:53:48;100137.81;;;1.48;94.51
23170;BME280;11753;43.144;24.714;2023-01-08T04:54:49;100131.78;;;1.48;94.33
23170;BME280;11753;43.144;24.714;2023-01-08T04:55:49;100137.06;;;1.46;94.32
23170;BME280;11753;43.144;24.714;2023-01-08T04:56:51;100132.19;;;1.40;94.09
23170;BME280;11753;43.144;24.714;2023-01-08T04:57:52;100139.84;;;1.43;93.92
23170;BME280;11753;43.144;24.714;2023-01-08T04:58:52;100136.47;;;1.41;93.69
23170;BME280;11753;43.144;24.714;2023-01-08T04:59:53;100138.22;;;1.41;93.55
23170;BME280;11753;43.144;24.714;2023-01-08T05:00:54;100136.78;;;1.35;93.67
23170;BME280;11753;43.144;24.714;2023-01-08T05:01:55;100144.34;;;1.40;93.30
23170;BME280;11753;43.144;24.714;2023-01-08T05:02:56;100135.44;;;1.28;93.46
23170;BME280;11753;43.144;24.714;2023-01-08T05:03:59;100137.38;;;1.24;93.64
23170;BME280;11753;43.144;24.714;2023-01-08T05:05:00;100135.50;;;1.10;94.27
23170;BME280;11753;43.144;24.714;2023-01-08T05:06:01;100137.88;;;1.15;94.56
23170;BME280;11753;43.144;24.714;2023-01-08T05:07:06;100136.34;;;1.11;94.62
23170;BME280;11753;43.144;24.714;2023-01-08T05:08:07;100139.03;;;1.09;95.11
23170;BME280;11753;43.144;24.714;2023-01-08T05:09:08;100141.63;;;1.09;95.30
23170;BME280;11753;43.144;24.714;2023-01-08T05:10:09;100142.69;;;1.05;95.76
23170;BME280;11753;43.144;24.714;2023-01-08T05:11:10;100141.44;;;1.13;95.29
23170;BME280;11753;43.144;24.714;2023-01-08T05:12:11;100142.38;;;1.12;95.25
23170;BME280;11753;43.144;24.714;2023-01-08T05:13:12;100139.16;;;1.06;95.14
23170;BME280;11753;43.144;24.714;2023-01-08T05:14:13;100137.50;;;1.05;95.36
23170;BME280;11753;43.144;24.714;2023-01-08T05:15:14;100142.97;;;1.17;94.93
23170;BME280;11753;43.144;24.714;2023-01-08T05:16:16;100133.84;;;1.09;94.58
23170;BME280;11753;43.144;24.714;2023-01-08T05:17:17;100140.53;;;1.14;94.95
23170;BME280;11753;43.144;24.714;2023-01-08T05:18:18;100140.53;;;1.14;94.64
23170;BME280;11753;43.144;24.714;2023-01-08T05:19:19;100142.22;;;1.15;94.61
23170;BME280;11753;43.144;24.714;2023-01-08T05:20:20;100145.34;;;1.04;94.54
23170;BME280;11753;43.144;24.714;2023-01-08T05:21:20;100146.81;;;1.09;94.95
23170;BME280;11753;43.144;24.714;2023-01-08T05:22:21;100143.34;;;0.93;95.84
23170;BME280;11753;43.144;24.714;2023-01-08T05:23:22;100145.53;;;1.01;95.64
23170;BME280;11753;43.144;24.714;2023-01-08T05:24:23;100135.22;;;0.99;95.61
23170;BME280;11753;43.144;24.714;2023-01-08T05:25:24;100141.75;;;1.06;95.46
23170;BME280;11753;43.144;24.714;2023-01-08T05:26:25;100144.88;;;1.13;95.31
23170;BME280;11753;43.144;24.714;2023-01-08T05:27:29;100147.63;;;1.10;95.08
23170;BME280;11753;43.144;24.714;2023-01-08T05:28:31;100151.38;;;1.04;95.16
23170;BME280;11753;43.144;24.714;2023-01-08T05:29:32;100142.75;;;1.04;95.07
23170;BME280;11753;43.144;24.714;2023-01-08T05:30:35;100150.19;;;0.94;95.99
23170;BME280;11753;43.144;24.714;2023-01-08T05:31:36;100147.44;;;0.97;95.95
23170;BME280;11753;43.144;24.714;2023-01-08T05:32:37;100152.31;;;1.03;95.94
23170;BME280;11753;43.144;24.714;2023-01-08T05:33:38;100153.53;;;0.96;96.11
23170;BME280;11753;43.144;24.714;2023-01-08T05:34:39;100155.06;;;1.00;95.97
23170;BME280;11753;43.144;24.714;2023-01-08T05:35:40;100145.44;;;1.02;96.02
23170;BME280;11753;43.144;24.714;2023-01-08T05:36:41;100141.19;;;1.01;96.11
23170;BME280;11753;43.144;24.714;2023-01-08T05:37:42;100147.34;;;0.99;95.83
23170;BME280;11753;43.144;24.714;2023-01-08T05:38:44;100146.50;;;0.98;96.03
23170;BME280;11753;43.144;24.714;2023-01-08T05:39:45;100153.22;;;1.02;95.70
23170;BME280;11753;43.144;24.714;2023-01-08T05:40:45;100149.19;;;0.97;95.90
23170;BME280;11753;43.144;24.714;2023-01-08T05:41:46;100151.38;;;1.04;95.60
23170;BME280;11753;43.144;24.714;2023-01-08T05:42:47;100148.97;;;1.01;95.35
23170;BME280;11753;43.144;24.714;2023-01-08T05:43:49;100165.59;;;0.97;95.24